sensor_id;sensor_type;location;lat;lon;timestamp;P1;durP1;ratioP1;P2;durP2;ratioP2
31482;SDS011;18103;52.246;8.052;2023-04-24T00:02:20;0.80;;;0.60;;
31482;SDS011;18103;52.246;8.052;2023-04-24T00:04:48;0.47;;;0.47;;
31482;SDS011;18103;52.246;8.052;2023-04-24T00:07:19;0.73;;;0.73;;
31482;SDS011;18103;52.246;8.052;2023-04-24T00:09:45;0.70;;;0.70;;
31482;SDS011;18103;52.246;8.052;2023-04-24T00:12:10;0.70;;;0.50;;
31482;SDS011;18103;52.246;8.052;2023-04-24T00:14:36;0.63;;;0.60;;
31482;SDS011;18103;52.246;8.052;2023-04-24T00:17:01;2.73;;;1.10;;
31482;SDS011;18103;52.246;8.052;2023-04-24T00:19:30;1.03;;;0.60;;
31482;SDS011;18103;52.246;8.052;2023-04-24T00:21:55;1.43;;;0.77;;
31482;SDS011;18103;52.246;8.052;2023-04-24T00:24:21;1.03;;;0.93;;
31482;SDS011;18103;52.246;8.052;2023-04-24T00:26:46;1.20;;;1.03;;
31482;SDS011;18103;52.246;8.052;2023-04-24T00:29:12;1.40;;;1.10;;
31482;SDS011;18103;52.246;8.052;2023-04-24T00:31:37;1.83;;;1.10;;
31482;SDS011;18103;52.246;8.052;2023-04-24T00:34:03;4.80;;;1.20;;
31482;SDS011;18103;52.246;8.052;2023-04-24T00:36:29;1.77;;;0.93;;
31482;SDS011;18103;52.246;8.052;2023-04-24T00:38:57;1.00;;;0.83;;
31482;SDS011;18103;52.246;8.052;2023-04-24T00:41:23;1.63;;;1.10;;
31482;SDS011;18103;52.246;8.052;2023-04-24T00:43:52;3.90;;;1.10;;
31482;SDS011;18103;52.246;8.052;2023-04-24T00:46:20;1.57;;;1.10;;
31482;SDS011;18103;52.246;8.052;2023-04-24T00:48:49;1.43;;;0.90;;
31482;SDS011;18103;52.246;8.052;2023-04-24T00:51:15;1.20;;;0.83;;
31482;SDS011;18103;52.246;8.052;2023-04-24T00:53:43;2.23;;;1.00;;
31482;SDS011;18103;52.246;8.052;2023-04-24T00:56:08;1.20;;;0.80;;
31482;SDS011;18103;52.246;8.052;2023-04-24T00:58:34;1.10;;;1.00;;
31482;SDS011;18103;52.246;8.052;2023-04-24T01:01:00;1.80;;;1.00;;
31482;SDS011;18103;52.246;8.052;2023-04-24T01:03:29;1.93;;;0.80;;
31482;SDS011;18103;52.246;8.052;2023-04-24T01:05:58;0.60;;;0.60;;
31482;SDS011;18103;52.246;8.052;2023-04-24T01:08:23;5.50;;;0.73;;
31482;SDS011;18103;52.246;8.052;2023-04-24T01:10:52;1.27;;;1.07;;
31482;SDS011;18103;52.246;8.052;2023-04-24T01:13:18;0.60;;;0.60;;
31482;SDS011;18103;52.246;8.052;2023-04-24T01:15:46;0.80;;;0.80;;
31482;SDS011;18103;52.246;8.052;2023-04-24T01:18:12;1.00;;;0.90;;
31482;SDS011;18103;52.246;8.052;2023-04-24T01:20:41;1.90;;;0.70;;
31482;SDS011;18103;52.246;8.052;2023-04-24T01:23:12;1.67;;;0.80;;
31482;SDS011;18103;52.246;8.052;2023-04-24T01:25:37;1.00;;;0.70;;
31482;SDS011;18103;52.246;8.052;2023-04-24T01:28:03;0.87;;;0.87;;
31482;SDS011;18103;52.246;8.052;2023-04-24T01:30:31;5.37;;;1.03;;
31482;SDS011;18103;52.246;8.052;2023-04-24T01:32:58;0.80;;;0.67;;
31482;SDS011;18103;52.246;8.052;2023-04-24T01:35:28;1.23;;;0.90;;
31482;SDS011;18103;52.246;8.052;2023-04-24T01:37:54;1.17;;;1.07;;
31482;SDS011;18103;52.246;8.052;2023-04-24T01:40:19;1.17;;;0.70;;
31482;SDS011;18103;52.246;8.052;2023-04-24T01:42:47;3.23;;;0.80;;
31482;SDS011;18103;52.246;8.052;2023-04-24T01:45:15;2.57;;;0.77;;
31482;SDS011;18103;52.246;8.052;2023-04-24T01:47:40;3.40;;;0.83;;
31482;SDS011;18103;52.246;8.052;2023-04-24T01:50:09;1.13;;;0.70;;
31482;SDS011;18103;52.246;8.052;2023-04-24T01:52:37;3.77;;;1.00;;
31482;SDS011;18103;52.246;8.052;2023-04-24T01:55:05;1.10;;;0.70;;
31482;SDS011;18103;52.246;8.052;2023-04-24T01:57:34;0.67;;;0.63;;
31482;SDS011;18103;52.246;8.052;2023-04-24T02:00:02;0.70;;;0.60;;
31482;SDS011;18103;52.246;8.052;2023-04-24T02:02:31;1.03;;;0.70;;
31482;SDS011;18103;52.246;8.052;2023-04-24T02:04:57;1.07;;;0.70;;
31482;SDS011;18103;52.246;8.052;2023-04-24T02:07:22;2.67;;;0.80;;
31482;SDS011;18103;52.246;8.052;2023-04-24T02:09:50;0.93;;;0.70;;
31482;SDS011;18103;52.246;8.052;2023-04-24T02:12:20;1.83;;;0.80;;
31482;SDS011;18103;52.246;8.052;2023-04-24T02:14:45;1.50;;;0.70;;
31482;SDS011;18103;52.246;8.052;2023-04-24T02:17:11;1.23;;;0.77;;
31482;SDS011;18103;52.246;8.052;2023-04-24T02:19:40;1.27;;;0.87;;
31482;SDS011;18103;52.246;8.052;2023-04-24T02:22:10;3.43;;;0.77;;
31482;SDS011;18103;52.246;8.052;2023-04-24T02:24:36;0.97;;;0.73;;
31482;SDS011;18103;52.246;8.052;2023-04-24T02:27:04;1.33;;;0.80;;
31482;SDS011;18103;52.246;8.052;2023-04-24T02:29:29;1.47;;;0.80;;
31482;SDS011;18103;52.246;8.052;2023-04-24T02:31:55;3.13;;;0.70;;
31482;SDS011;18103;52.246;8.052;2023-04-24T02:34:20;0.77;;;0.70;;
31482;SDS011;18103;52.246;8.052;2023-04-24T02:36:48;3.03;;;1.10;;
31482;SDS011;18103;52.246;8.052;2023-04-24T02:39:14;1.33;;;0.87;;
31482;SDS011;18103;52.246;8.052;2023-04-24T02:41:41;1.90;;;0.70;;
31482;SDS011;18103;52.246;8.052;2023-04-24T02:44:09;1.07;;;0.97;;
31482;SDS011;18103;52.246;8.052;2023-04-24T02:46:35;1.00;;;0.90;;
31482;SDS011;18103;52.246;8.052;2023-04-24T02:49:03;1.97;;;0.90;;
31482;SDS011;18103;52.246;8.052;2023-04-24T02:51:31;1.90;;;0.97;;
31482;SDS011;18103;52.246;8.052;2023-04-24T02:53:56;1.40;;;1.30;;
31482;SDS011;18103;52.246;8.052;2023-04-24T02:56:24;2.17;;;1.30;;
31482;SDS011;18103;52.246;8.052;2023-04-24T02:58:49;1.50;;;1.00;;
31482;SDS011;18103;52.246;8.052;2023-04-24T03:01:15;2.97;;;1.80;;
31482;SDS011;18103;52.246;8.052;2023-04-24T03:03:43;3.00;;;1.90;;
31482;SDS011;18103;52.246;8.052;2023-04-24T03:06:08;1.60;;;0.97;;
31482;SDS011;18103;52.246;8.052;2023-04-24T03:08:33;2.47;;;1.13;;
31482;SDS011;18103;52.246;8.052;2023-04-24T03:10:59;4.57;;;1.20;;
31482;SDS011;18103;52.246;8.052;2023-04-24T03:13:32;3.10;;;1.23;;
31482;SDS011;18103;52.246;8.052;2023-04-24T03:15:57;1.87;;;1.20;;
31482;SDS011;18103;52.246;8.052;2023-04-24T03:18:22;3.53;;;1.40;;
31482;SDS011;18103;52.246;8.052;2023-04-24T03:20:48;1.33;;;0.90;;
31482;SDS011;18103;52.246;8.052;2023-04-24T03:23:14;2.10;;;1.10;;
31482;SDS011;18103;52.246;8.052;2023-04-24T03:25:40;1.40;;;1.20;;
31482;SDS011;18103;52.246;8.052;2023-04-24T03:28:07;2.87;;;1.73;;
31482;SDS011;18103;52.246;8.052;2023-04-24T03:30:37;1.87;;;1.40;;
31482;SDS011;18103;52.246;8.052;2023-04-24T03:33:03;3.53;;;1.50;;
31482;SDS011;18103;52.246;8.052;2023-04-24T03:35:28;4.17;;;1.73;;
31482;SDS011;18103;52.246;8.052;2023-04-24T03:37:56;0.97;;;0.93;;
31482;SDS011;18103;52.246;8.052;2023-04-24T03:40:21;4.23;;;1.63;;
31482;SDS011;18103;52.246;8.052;2023-04-24T03:42:49;3.00;;;1.60;;
31482;SDS011;18103;52.246;8.052;2023-04-24T03:45:14;3.10;;;1.67;;
31482;SDS011;18103;52.246;8.052;2023-04-24T03:47:42;4.30;;;1.80;;
31482;SDS011;18103;52.246;8.052;2023-04-24T03:50:08;2.20;;;1.87;;
31482;SDS011;18103;52.246;8.052;2023-04-24T03:52:33;4.73;;;1.87;;
31482;SDS011;18103;52.246;8.052;2023-04-24T03:55:02;4.73;;;2.20;;
31482;SDS011;18103;52.246;8.052;2023-04-24T03:57:27;4.70;;;2.27;;
31482;SDS011;18103;52.246;8.052;2023-04-24T03:59:58;3.50;;;2.47;;
31482;SDS011;18103;52.246;8.052;2023-04-24T04:02:23;2.87;;;2.10;;
31482;SDS011;18103;52.246;8.052;2023-04-24T04:04:48;6.47;;;2.80;;
31482;SDS011;18103;52.246;8.052;2023-04-24T04:07:14;3.63;;;2.63;;
31482;SDS011;18103;52.246;8.052;2023-04-24T04:09:41;6.53;;;3.50;;
31482;SDS011;18103;52.246;8.052;2023-04-24T04:12:07;6.20;;;3.70;;
31482;SDS011;18103;52.246;8.052;2023-04-24T04:14:32;7.77;;;3.70;;
31482;SDS011;18103;52.246;8.052;2023-04-24T04:17:03;10.53;;;3.70;;
31482;SDS011;18103;52.246;8.052;2023-04-24T04:19:28;8.13;;;3.67;;
31482;SDS011;18103;52.246;8.052;2023-04-24T04:21:54;5.23;;;4.23;;
31482;SDS011;18103;52.246;8.052;2023-04-24T04:24:23;6.80;;;4.37;;
31482;SDS011;18103;52.246;8.052;2023-04-24T04:26:49;7.87;;;4.30;;
31482;SDS011;18103;52.246;8.052;2023-04-24T04:29:17;3.53;;;2.83;;
31482;SDS011;18103;52.246;8.052;2023-04-24T04:31:43;5.63;;;3.80;;
31482;SDS011;18103;52.246;8.052;2023-04-24T04:34:09;10.43;;;4.37;;
31482;SDS011;18103;52.246;8.052;2023-04-24T04:36:37;7.50;;;4.63;;
31482;SDS011;18103;52.246;8.052;2023-04-24T04:39:05;6.03;;;3.90;;
31482;SDS011;18103;52.246;8.052;2023-04-24T04:41:30;6.97;;;4.60;;
31482;SDS011;18103;52.246;8.052;2023-04-24T04:43:56;8.67;;;4.10;;
31482;SDS011;18103;52.246;8.052;2023-04-24T04:46:23;6.87;;;4.20;;
31482;SDS011;18103;52.246;8.052;2023-04-24T04:48:52;7.50;;;4.73;;
31482;SDS011;18103;52.246;8.052;2023-04-24T04:51:18;4.93;;;3.60;;
31482;SDS011;18103;52.246;8.052;2023-04-24T04:53:43;4.37;;;3.17;;
31482;SDS011;18103;52.246;8.052;2023-04-24T04:56:08;16.33;;;6.30;;
31482;SDS011;18103;52.246;8.052;2023-04-24T04:58:34;11.57;;;6.20;;
31482;SDS011;18103;52.246;8.052;2023-04-24T05:00:59;10.13;;;5.40;;
31482;SDS011;18103;52.246;8.052;2023-04-24T05:03:25;9.37;;;5.73;;
31482;SDS011;18103;52.246;8.052;2023-04-24T05:05:52;9.13;;;5.80;;
31482;SDS011;18103;52.246;8.052;2023-04-24T05:08:20;7.73;;;5.30;;
31482;SDS011;18103;52.246;8.052;2023-04-24T05:10:47;12.60;;;6.93;;
31482;SDS011;18103;52.246;8.052;2023-04-24T05:13:13;11.90;;;6.03;;
31482;SDS011;18103;52.246;8.052;2023-04-24T05:15:41;14.70;;;7.17;;
31482;SDS011;18103;52.246;8.052;2023-04-24T05:18:08;11.40;;;6.90;;
31482;SDS011;18103;52.246;8.052;2023-04-24T05:20:33;13.87;;;7.07;;
31482;SDS011;18103;52.246;8.052;2023-04-24T05:22:59;10.57;;;4.83;;
31482;SDS011;18103;52.246;8.052;2023-04-24T05:25:24;10.67;;;5.20;;
31482;SDS011;18103;52.246;8.052;2023-04-24T05:27:49;12.47;;;6.90;;
31482;SDS011;18103;52.246;8.052;2023-04-24T05:30:15;12.17;;;5.90;;
31482;SDS011;18103;52.246;8.052;2023-04-24T05:32:40;13.63;;;7.20;;
31482;SDS011;18103;52.246;8.052;2023-04-24T05:35:09;11.37;;;6.50;;
31482;SDS011;18103;52.246;8.052;2023-04-24T05:37:35;12.87;;;6.77;;
31482;SDS011;18103;52.246;8.052;2023-04-24T05:40:05;12.60;;;7.90;;
31482;SDS011;18103;52.246;8.052;2023-04-24T05:42:31;14.73;;;8.73;;
31482;SDS011;18103;52.246;8.052;2023-04-24T05:44:57;14.37;;;8.03;;
31482;SDS011;18103;52.246;8.052;2023-04-24T05:47:22;13.10;;;7.07;;
31482;SDS011;18103;52.246;8.052;2023-04-24T05:49:48;16.00;;;6.93;;
31482;SDS011;18103;52.246;8.052;2023-04-24T05:52:13;20.37;;;9.60;;
31482;SDS011;18103;52.246;8.052;2023-04-24T05:54:43;7.73;;;4.93;;
31482;SDS011;18103;52.246;8.052;2023-04-24T05:57:11;18.23;;;8.93;;
31482;SDS011;18103;52.246;8.052;2023-04-24T05:59:37;18.00;;;8.60;;
31482;SDS011;18103;52.246;8.052;2023-04-24T06:02:05;12.47;;;8.20;;
31482;SDS011;18103;52.246;8.052;2023-04-24T06:04:33;17.57;;;9.57;;
31482;SDS011;18103;52.246;8.052;2023-04-24T06:06:59;16.37;;;8.80;;
31482;SDS011;18103;52.246;8.052;2023-04-24T06:09:24;19.53;;;9.00;;
31482;SDS011;18103;52.246;8.052;2023-04-24T06:11:53;19.60;;;8.37;;
31482;SDS011;18103;52.246;8.052;2023-04-24T06:14:18;14.20;;;9.00;;
31482;SDS011;18103;52.246;8.052;2023-04-24T06:16:47;13.73;;;8.17;;
31482;SDS011;18103;52.246;8.052;2023-04-24T06:19:13;20.20;;;9.93;;
31482;SDS011;18103;52.246;8.052;2023-04-24T06:21:38;19.87;;;10.13;;
31482;SDS011;18103;52.246;8.052;2023-04-24T06:24:03;16.83;;;9.03;;
31482;SDS011;18103;52.246;8.052;2023-04-24T06:26:32;17.43;;;9.17;;
31482;SDS011;18103;52.246;8.052;2023-04-24T06:28:59;19.37;;;9.20;;
31482;SDS011;18103;52.246;8.052;2023-04-24T06:31:25;16.70;;;9.10;;
31482;SDS011;18103;52.246;8.052;2023-04-24T06:33:53;15.23;;;8.90;;
31482;SDS011;18103;52.246;8.052;2023-04-24T06:36:19;19.20;;;9.73;;
31482;SDS011;18103;52.246;8.052;2023-04-24T06:38:44;14.93;;;8.97;;
31482;SDS011;18103;52.246;8.052;2023-04-24T06:41:10;18.30;;;8.73;;
31482;SDS011;18103;52.246;8.052;2023-04-24T06:43:35;17.57;;;9.47;;
31482;SDS011;18103;52.246;8.052;2023-04-24T06:46:03;12.10;;;7.73;;
31482;SDS011;18103;52.246;8.052;2023-04-24T06:48:28;17.27;;;8.90;;
31482;SDS011;18103;52.246;8.052;2023-04-24T06:50:54;13.83;;;8.73;;
31482;SDS011;18103;52.246;8.052;2023-04-24T06:53:19;16.07;;;9.07;;
31482;SDS011;18103;52.246;8.052;2023-04-24T06:55:48;13.03;;;7.53;;
31482;SDS011;18103;52.246;8.052;2023-04-24T06:58:13;15.40;;;8.47;;
31482;SDS011;18103;52.246;8.052;2023-04-24T07:00:40;15.70;;;7.83;;
31482;SDS011;18103;52.246;8.052;2023-04-24T07:03:05;17.47;;;7.93;;
31482;SDS011;18103;52.246;8.052;2023-04-24T07:05:31;18.93;;;7.70;;
31482;SDS011;18103;52.246;8.052;2023-04-24T07:08:00;12.57;;;8.03;;
31482;SDS011;18103;52.246;8.052;2023-04-24T07:10:27;16.67;;;8.47;;
31482;SDS011;18103;52.246;8.052;2023-04-24T07:12:53;17.00;;;7.83;;
31482;SDS011;18103;52.246;8.052;2023-04-24T07:15:19;14.83;;;7.97;;
31482;SDS011;18103;52.246;8.052;2023-04-24T07:17:45;15.00;;;8.47;;
31482;SDS011;18103;52.246;8.052;2023-04-24T07:20:11;12.77;;;7.00;;
31482;SDS011;18103;52.246;8.052;2023-04-24T07:22:39;15.23;;;7.53;;
31482;SDS011;18103;52.246;8.052;2023-04-24T07:25:05;15.17;;;7.87;;
31482;SDS011;18103;52.246;8.052;2023-04-24T07:27:32;17.50;;;7.93;;
31482;SDS011;18103;52.246;8.052;2023-04-24T07:30:00;14.57;;;7.43;;
31482;SDS011;18103;52.246;8.052;2023-04-24T07:32:28;18.37;;;8.30;;
31482;SDS011;18103;52.246;8.052;2023-04-24T07:34:54;11.33;;;7.10;;
31482;SDS011;18103;52.246;8.052;2023-04-24T07:37:20;13.20;;;6.43;;
31482;SDS011;18103;52.246;8.052;2023-04-24T07:39:47;9.47;;;4.93;;
31482;SDS011;18103;52.246;8.052;2023-04-24T07:42:13;15.77;;;7.17;;
31482;SDS011;18103;52.246;8.052;2023-04-24T07:44:38;12.17;;;7.03;;
31482;SDS011;18103;52.246;8.052;2023-04-24T07:47:03;10.47;;;6.87;;
31482;SDS011;18103;52.246;8.052;2023-04-24T07:49:29;20.00;;;7.40;;
31482;SDS011;18103;52.246;8.052;2023-04-24T07:51:54;12.70;;;6.63;;
31482;SDS011;18103;52.246;8.052;2023-04-24T07:54:20;14.40;;;7.17;;
31482;SDS011;18103;52.246;8.052;2023-04-24T07:56:45;12.97;;;6.80;;
31482;SDS011;18103;52.246;8.052;2023-04-24T07:59:11;11.00;;;6.60;;
31482;SDS011;18103;52.246;8.052;2023-04-24T08:01:36;12.57;;;7.07;;
31482;SDS011;18103;52.246;8.052;2023-04-24T08:04:04;12.77;;;7.50;;
31482;SDS011;18103;52.246;8.052;2023-04-24T08:06:29;11.40;;;6.53;;
31482;SDS011;18103;52.246;8.052;2023-04-24T08:08:55;9.67;;;5.57;;
31482;SDS011;18103;52.246;8.052;2023-04-24T08:11:24;9.13;;;5.63;;
31482;SDS011;18103;52.246;8.052;2023-04-24T08:13:51;12.73;;;6.63;;
31482;SDS011;18103;52.246;8.052;2023-04-24T08:16:19;14.40;;;6.50;;
31482;SDS011;18103;52.246;8.052;2023-04-24T08:18:45;12.00;;;7.03;;
31482;SDS011;18103;52.246;8.052;2023-04-24T08:21:13;9.77;;;6.67;;
31482;SDS011;18103;52.246;8.052;2023-04-24T08:23:42;12.17;;;6.30;;
31482;SDS011;18103;52.246;8.052;2023-04-24T08:26:10;11.47;;;5.80;;
31482;SDS011;18103;52.246;8.052;2023-04-24T08:28:36;12.43;;;6.43;;
31482;SDS011;18103;52.246;8.052;2023-04-24T08:31:04;9.60;;;6.87;;
31482;SDS011;18103;52.246;8.052;2023-04-24T08:33:30;11.30;;;5.80;;
31482;SDS011;18103;52.246;8.052;2023-04-24T08:35:59;13.07;;;6.00;;
31482;SDS011;18103;52.246;8.052;2023-04-24T08:38:29;8.03;;;4.33;;
31482;SDS011;18103;52.246;8.052;2023-04-24T08:40:57;7.27;;;5.30;;
31482;SDS011;18103;52.246;8.052;2023-04-24T08:43:28;8.83;;;5.77;;
31482;SDS011;18103;52.246;8.052;2023-04-24T08:45:55;8.83;;;4.70;;
31482;SDS011;18103;52.246;8.052;2023-04-24T08:48:21;10.17;;;5.10;;
31482;SDS011;18103;52.246;8.052;2023-04-24T08:50:50;6.97;;;4.83;;
31482;SDS011;18103;52.246;8.052;2023-04-24T08:53:16;8.80;;;5.53;;
31482;SDS011;18103;52.246;8.052;2023-04-24T08:55:45;7.80;;;4.53;;
31482;SDS011;18103;52.246;8.052;2023-04-24T08:58:18;6.97;;;4.33;;
31482;SDS011;18103;52.246;8.052;2023-04-24T09:00:47;7.23;;;3.50;;
31482;SDS011;18103;52.246;8.052;2023-04-24T09:03:16;8.20;;;4.30;;
31482;SDS011;18103;52.246;8.052;2023-04-24T09:05:44;3.40;;;2.70;;
31482;SDS011;18103;52.246;8.052;2023-04-24T09:08:15;2.20;;;1.87;;
31482;SDS011;18103;52.246;8.052;2023-04-24T09:10:42;6.07;;;2.90;;
31482;SDS011;18103;52.246;8.052;2023-04-24T09:13:10;5.77;;;3.80;;
31482;SDS011;18103;52.246;8.052;2023-04-24T09:15:37;5.90;;;2.67;;
31482;SDS011;18103;52.246;8.052;2023-04-24T09:18:05;6.33;;;3.87;;
31482;SDS011;18103;52.246;8.052;2023-04-24T09:20:33;5.73;;;3.50;;
31482;SDS011;18103;52.246;8.052;2023-04-24T09:23:18;5.30;;;3.17;;
31482;SDS011;18103;52.246;8.052;2023-04-24T09:25:43;5.87;;;4.30;;
31482;SDS011;18103;52.246;8.052;2023-04-24T09:28:09;6.03;;;3.60;;
31482;SDS011;18103;52.246;8.052;2023-04-24T09:30:34;6.53;;;3.50;;
31482;SDS011;18103;52.246;8.052;2023-04-24T09:33:09;8.73;;;4.30;;
31482;SDS011;18103;52.246;8.052;2023-04-24T09:35:41;4.17;;;3.50;;
31482;SDS011;18103;52.246;8.052;2023-04-24T09:38:17;5.53;;;3.97;;
31482;SDS011;18103;52.246;8.052;2023-04-24T09:40:55;6.53;;;4.27;;
31482;SDS011;18103;52.246;8.052;2023-04-24T09:43:20;7.50;;;4.03;;
31482;SDS011;18103;52.246;8.052;2023-04-24T09:45:45;9.57;;;4.00;;
31482;SDS011;18103;52.246;8.052;2023-04-24T09:48:11;8.87;;;4.30;;
31482;SDS011;18103;52.246;8.052;2023-04-24T09:50:36;5.40;;;3.37;;
31482;SDS011;18103;52.246;8.052;2023-04-24T09:53:05;9.40;;;3.67;;
31482;SDS011;18103;52.246;8.052;2023-04-24T09:55:38;7.33;;;4.83;;
31482;SDS011;18103;52.246;8.052;2023-04-24T09:58:06;6.70;;;3.47;;
31482;SDS011;18103;52.246;8.052;2023-04-24T10:00:33;5.13;;;3.83;;
31482;SDS011;18103;52.246;8.052;2023-04-24T10:03:02;7.80;;;4.07;;
31482;SDS011;18103;52.246;8.052;2023-04-24T10:05:33;5.70;;;3.27;;
31482;SDS011;18103;52.246;8.052;2023-04-24T10:08:03;4.20;;;3.57;;
31482;SDS011;18103;52.246;8.052;2023-04-24T10:10:29;6.07;;;3.80;;
31482;SDS011;18103;52.246;8.052;2023-04-24T10:12:56;5.83;;;3.47;;
31482;SDS011;18103;52.246;8.052;2023-04-24T10:15:22;3.60;;;2.60;;
31482;SDS011;18103;52.246;8.052;2023-04-24T10:17:48;3.63;;;2.83;;
31482;SDS011;18103;52.246;8.052;2023-04-24T10:20:20;3.47;;;2.60;;
31482;SDS011;18103;52.246;8.052;2023-04-24T10:22:49;4.20;;;2.70;;
31482;SDS011;18103;52.246;8.052;2023-04-24T10:25:19;6.30;;;2.53;;
31482;SDS011;18103;52.246;8.052;2023-04-24T10:27:47;4.13;;;2.10;;
31482;SDS011;18103;52.246;8.052;2023-04-24T10:30:13;2.73;;;1.90;;
31482;SDS011;18103;52.246;8.052;2023-04-24T10:32:39;4.53;;;2.07;;
31482;SDS011;18103;52.246;8.052;2023-04-24T10:35:08;3.10;;;1.83;;
31482;SDS011;18103;52.246;8.052;2023-04-24T10:37:38;2.40;;;1.93;;
31482;SDS011;18103;52.246;8.052;2023-04-24T10:40:06;1.80;;;1.10;;
31482;SDS011;18103;52.246;8.052;2023-04-24T10:42:35;2.53;;;1.63;;
31482;SDS011;18103;52.246;8.052;2023-04-24T10:45:06;1.33;;;1.10;;
31482;SDS011;18103;52.246;8.052;2023-04-24T10:47:50;2.07;;;1.20;;
31482;SDS011;18103;52.246;8.052;2023-04-24T10:50:17;1.67;;;1.00;;
31482;SDS011;18103;52.246;8.052;2023-04-24T10:52:46;2.47;;;1.50;;
31482;SDS011;18103;52.246;8.052;2023-04-24T10:55:13;1.57;;;0.80;;
31482;SDS011;18103;52.246;8.052;2023-04-24T10:57:40;2.57;;;0.60;;
31482;SDS011;18103;52.246;8.052;2023-04-24T11:00:26;2.20;;;0.63;;
31482;SDS011;18103;52.246;8.052;2023-04-24T11:02:54;0.57;;;0.50;;
31482;SDS011;18103;52.246;8.052;2023-04-24T11:05:22;2.67;;;0.60;;
31482;SDS011;18103;52.246;8.052;2023-04-24T11:08:20;4.00;;;0.90;;
31482;SDS011;18103;52.246;8.052;2023-04-24T11:10:55;0.43;;;0.40;;
31482;SDS011;18103;52.246;8.052;2023-04-24T11:13:23;0.40;;;0.40;;
31482;SDS011;18103;52.246;8.052;2023-04-24T11:24:23;0.40;;;0.40;;
31482;SDS011;18103;52.246;8.052;2023-04-24T11:26:48;0.70;;;0.40;;
31482;SDS011;18103;52.246;8.052;2023-04-24T11:29:20;1.37;;;0.80;;
31482;SDS011;18103;52.246;8.052;2023-04-24T11:31:48;1.93;;;0.60;;
31482;SDS011;18103;52.246;8.052;2023-04-24T11:34:16;0.50;;;0.50;;
31482;SDS011;18103;52.246;8.052;2023-04-24T11:36:45;2.37;;;1.37;;
31482;SDS011;18103;52.246;8.052;2023-04-24T11:39:16;3.30;;;1.20;;
31482;SDS011;18103;52.246;8.052;2023-04-24T11:41:44;2.20;;;1.93;;
31482;SDS011;18103;52.246;8.052;2023-04-24T11:44:09;2.83;;;1.67;;
31482;SDS011;18103;52.246;8.052;2023-04-24T11:46:44;3.73;;;2.57;;
31482;SDS011;18103;52.246;8.052;2023-04-24T11:49:09;4.57;;;2.77;;
31482;SDS011;18103;52.246;8.052;2023-04-24T11:51:35;4.13;;;1.47;;
31482;SDS011;18103;52.246;8.052;2023-04-24T11:54:00;5.93;;;3.03;;
31482;SDS011;18103;52.246;8.052;2023-04-24T11:56:25;6.07;;;3.33;;
31482;SDS011;18103;52.246;8.052;2023-04-24T11:58:54;8.73;;;3.10;;
31482;SDS011;18103;52.246;8.052;2023-04-24T12:01:22;5.63;;;3.67;;
31482;SDS011;18103;52.246;8.052;2023-04-24T12:03:48;7.57;;;3.03;;
31482;SDS011;18103;52.246;8.052;2023-04-24T12:06:16;4.27;;;3.43;;
31482;SDS011;18103;52.246;8.052;2023-04-24T12:08:41;5.43;;;3.23;;
31482;SDS011;18103;52.246;8.052;2023-04-24T12:11:10;7.80;;;3.20;;
31482;SDS011;18103;52.246;8.052;2023-04-24T12:13:36;4.00;;;2.60;;
31482;SDS011;18103;52.246;8.052;2023-04-24T12:16:05;8.20;;;2.83;;
31482;SDS011;18103;52.246;8.052;2023-04-24T12:18:33;11.43;;;2.90;;
31482;SDS011;18103;52.246;8.052;2023-04-24T12:21:14;5.00;;;2.73;;
31482;SDS011;18103;52.246;8.052;2023-04-24T12:23:53;5.50;;;2.70;;
31482;SDS011;18103;52.246;8.052;2023-04-24T12:26:19;5.03;;;2.67;;
31482;SDS011;18103;52.246;8.052;2023-04-24T12:28:47;7.37;;;2.70;;
31482;SDS011;18103;52.246;8.052;2023-04-24T12:31:14;11.27;;;2.90;;
31482;SDS011;18103;52.246;8.052;2023-04-24T12:33:42;5.23;;;2.77;;
31482;SDS011;18103;52.246;8.052;2023-04-24T12:36:09;3.17;;;1.83;;
31482;SDS011;18103;52.246;8.052;2023-04-24T12:38:37;4.10;;;1.67;;
31482;SDS011;18103;52.246;8.052;2023-04-24T12:41:09;3.40;;;1.80;;
31482;SDS011;18103;52.246;8.052;2023-04-24T12:43:50;4.83;;;2.43;;
31482;SDS011;18103;52.246;8.052;2023-04-24T12:46:17;4.13;;;1.53;;
31482;SDS011;18103;52.246;8.052;2023-04-24T12:48:42;1.90;;;1.53;;
31482;SDS011;18103;52.246;8.052;2023-04-24T12:51:08;4.13;;;2.00;;
31482;SDS011;18103;52.246;8.052;2023-04-24T12:53:33;6.83;;;2.40;;
31482;SDS011;18103;52.246;8.052;2023-04-24T12:55:59;3.27;;;1.77;;
31482;SDS011;18103;52.246;8.052;2023-04-24T12:58:26;4.00;;;1.93;;
31482;SDS011;18103;52.246;8.052;2023-04-24T13:00:52;4.33;;;2.17;;
31482;SDS011;18103;52.246;8.052;2023-04-24T13:03:17;3.27;;;1.97;;
31482;SDS011;18103;52.246;8.052;2023-04-24T13:05:47;4.80;;;1.63;;
31482;SDS011;18103;52.246;8.052;2023-04-24T13:08:15;3.50;;;1.40;;
31482;SDS011;18103;52.246;8.052;2023-04-24T13:10:40;6.90;;;1.93;;
31482;SDS011;18103;52.246;8.052;2023-04-24T13:13:08;4.07;;;2.23;;
31482;SDS011;18103;52.246;8.052;2023-04-24T13:15:37;0.87;;;0.80;;
31482;SDS011;18103;52.246;8.052;2023-04-24T13:18:05;2.23;;;0.40;;
31482;SDS011;18103;52.246;8.052;2023-04-24T13:20:30;0.20;;;0.20;;
31482;SDS011;18103;52.246;8.052;2023-04-24T13:22:56;0.10;;;0.10;;
31482;SDS011;18103;52.246;8.052;2023-04-24T13:25:23;0.10;;;0.10;;
31482;SDS011;18103;52.246;8.052;2023-04-24T13:27:52;0.83;;;0.80;;
31482;SDS011;18103;52.246;8.052;2023-04-24T13:30:20;0.30;;;0.30;;
31482;SDS011;18103;52.246;8.052;2023-04-24T13:32:45;0.10;;;0.10;;
31482;SDS011;18103;52.246;8.052;2023-04-24T13:35:10;0.10;;;0.10;;
31482;SDS011;18103;52.246;8.052;2023-04-24T13:37:36;0.10;;;0.10;;
31482;SDS011;18103;52.246;8.052;2023-04-24T13:40:01;0.33;;;0.33;;
31482;SDS011;18103;52.246;8.052;2023-04-24T13:42:27;0.37;;;0.37;;
31482;SDS011;18103;52.246;8.052;2023-04-24T13:44:55;0.10;;;0.10;;
31482;SDS011;18103;52.246;8.052;2023-04-24T13:47:23;0.30;;;0.30;;
31482;SDS011;18103;52.246;8.052;2023-04-24T13:49:50;0.13;;;0.13;;
31482;SDS011;18103;52.246;8.052;2023-04-24T13:52:19;0.17;;;0.17;;
31482;SDS011;18103;52.246;8.052;2023-04-24T13:54:49;0.67;;;0.50;;
31482;SDS011;18103;52.246;8.052;2023-04-24T13:57:14;0.10;;;0.10;;
31482;SDS011;18103;52.246;8.052;2023-04-24T13:59:42;0.20;;;0.20;;
31482;SDS011;18103;52.246;8.052;2023-04-24T14:02:07;0.30;;;0.30;;
31482;SDS011;18103;52.246;8.052;2023-04-24T14:04:33;0.30;;;0.30;;
31482;SDS011;18103;52.246;8.052;2023-04-24T14:07:00;1.60;;;0.57;;
31482;SDS011;18103;52.246;8.052;2023-04-24T14:09:29;0.30;;;0.30;;
31482;SDS011;18103;52.246;8.052;2023-04-24T14:11:54;0.50;;;0.30;;
31482;SDS011;18103;52.246;8.052;2023-04-24T14:14:19;0.10;;;0.10;;
31482;SDS011;18103;52.246;8.052;2023-04-24T14:16:45;0.20;;;0.20;;
31482;SDS011;18103;52.246;8.052;2023-04-24T14:19:10;0.10;;;0.10;;
31482;SDS011;18103;52.246;8.052;2023-04-24T14:21:36;0.10;;;0.10;;
31482;SDS011;18103;52.246;8.052;2023-04-24T14:24:01;0.30;;;0.30;;
31482;SDS011;18103;52.246;8.052;2023-04-24T14:26:26;0.20;;;0.20;;
31482;SDS011;18103;52.246;8.052;2023-04-24T14:28:54;0.37;;;0.37;;
31482;SDS011;18103;52.246;8.052;2023-04-24T14:31:22;0.20;;;0.20;;
31482;SDS011;18103;52.246;8.052;2023-04-24T14:33:48;0.10;;;0.10;;
31482;SDS011;18103;52.246;8.052;2023-04-24T14:36:13;0.20;;;0.20;;
31482;SDS011;18103;52.246;8.052;2023-04-24T14:38:38;0.10;;;0.10;;
31482;SDS011;18103;52.246;8.052;2023-04-24T14:41:04;0.10;;;0.10;;
31482;SDS011;18103;52.246;8.052;2023-04-24T14:43:34;0.50;;;0.50;;
31482;SDS011;18103;52.246;8.052;2023-04-24T14:46:00;0.20;;;0.20;;
31482;SDS011;18103;52.246;8.052;2023-04-24T14:48:25;0.30;;;0.30;;
31482;SDS011;18103;52.246;8.052;2023-04-24T14:50:51;0.20;;;0.20;;
31482;SDS011;18103;52.246;8.052;2023-04-24T14:53:21;0.67;;;0.63;;
31482;SDS011;18103;52.246;8.052;2023-04-24T14:55:47;0.10;;;0.10;;